createdAt,value
2018-05-17T00:00:05.407Z,23.43
2018-05-17T00:02:32.891Z,20.13
2018-05-17T00:05:00.369Z,14.43
2018-05-17T00:07:27.843Z,10.07
2018-05-17T00:09:55.311Z,8.37
2018-05-17T00:12:22.792Z,9.73
2018-05-17T00:14:51.023Z,9.23
2018-05-17T00:17:18.636Z,10.23
2018-05-17T00:19:47.535Z,8.20
2018-05-17T00:22:15.010Z,8.67
2018-05-17T00:24:42.488Z,8.23
2018-05-17T00:27:09.964Z,8.73
2018-05-17T00:29:37.447Z,9.87
2018-05-17T00:32:05.706Z,9.43
2018-05-17T00:34:33.272Z,11.80
2018-05-17T00:37:00.760Z,10.43
2018-05-17T00:39:28.215Z,8.30
2018-05-17T00:41:55.688Z,8.27
2018-05-17T00:44:23.155Z,8.57
2018-05-17T00:46:50.615Z,9.73
2018-05-17T00:49:18.120Z,7.30
2018-05-17T00:51:46.347Z,8.20
2018-05-17T00:54:13.820Z,7.40
2018-05-17T00:56:41.294Z,8.13
2018-05-17T00:59:09.523Z,7.43
2018-05-17T01:01:37.004Z,6.90
2018-05-17T01:04:04.528Z,7.90
2018-05-17T01:06:32.009Z,9.60
2018-05-17T01:08:59.463Z,8.60
2018-05-17T01:11:26.939Z,7.77
2018-05-17T01:13:54.400Z,7.23
2018-05-17T01:16:21.877Z,9.13
2018-05-17T01:18:50.163Z,8.87
2018-05-17T01:21:17.667Z,6.90
2018-05-17T01:23:45.132Z,8.57
2018-05-17T01:26:12.616Z,8.97
2018-05-17T01:28:40.832Z,12.40
2018-05-17T01:31:08.307Z,11.30
2018-05-17T01:33:37.287Z,10.60
2018-05-17T01:36:04.751Z,9.70
2018-05-17T01:38:32.268Z,9.20
2018-05-17T01:40:59.732Z,8.97
2018-05-17T01:43:27.200Z,9.70
2018-05-17T01:45:54.662Z,8.77
2018-05-17T01:48:22.257Z,9.77
2018-05-17T01:50:49.722Z,13.17
2018-05-17T01:53:17.970Z,11.53
2018-05-17T01:55:45.451Z,10.00
2018-05-17T01:58:12.916Z,13.20
2018-05-17T02:00:41.160Z,10.40
2018-05-17T02:03:08.628Z,13.53
2018-05-17T02:05:36.611Z,11.63
2018-05-17T02:08:04.846Z,14.40
2018-05-17T02:10:32.319Z,10.70
2018-05-17T02:12:59.778Z,9.47
2018-05-17T02:15:27.267Z,9.33
2018-05-17T02:17:55.526Z,8.73
2018-05-17T02:20:23.790Z,10.07
2018-05-17T02:22:51.246Z,9.73
2018-05-17T02:25:18.698Z,9.67
2018-05-17T02:27:47.012Z,9.87
2018-05-17T02:30:14.523Z,10.73
2018-05-17T02:32:42.765Z,9.60
2018-05-17T02:35:10.253Z,10.47
2018-05-17T02:37:38.865Z,10.60
2018-05-17T02:40:07.094Z,12.13
2018-05-17T02:42:34.570Z,10.33
2018-05-17T02:45:02.064Z,10.93
2018-05-17T02:47:29.585Z,10.47
2018-05-17T02:49:57.065Z,9.30
2018-05-17T02:52:24.529Z,10.23
2018-05-17T02:54:52.062Z,11.43
2018-05-17T02:57:20.287Z,10.87
2018-05-17T02:59:47.787Z,10.00
2018-05-17T03:02:15.251Z,9.23
2018-05-17T03:04:43.501Z,11.17
2018-05-17T03:07:11.132Z,10.53
2018-05-17T03:09:38.624Z,9.73
2018-05-17T03:12:06.088Z,11.03
2018-05-17T03:14:34.339Z,10.37
2018-05-17T03:17:01.814Z,10.80
2018-05-17T03:19:30.044Z,9.57
2018-05-17T03:21:57.520Z,10.57
2018-05-17T03:24:25.006Z,12.17
2018-05-17T03:26:52.476Z,10.27
2018-05-17T03:29:20.705Z,10.37
2018-05-17T03:31:48.285Z,9.73
2018-05-17T03:34:15.768Z,10.73
2018-05-17T03:36:44.007Z,11.40
2018-05-17T03:39:11.482Z,10.53
2018-05-17T03:41:38.970Z,10.90
2018-05-17T03:44:06.437Z,11.53
2018-05-17T03:46:33.914Z,9.97
2018-05-17T03:49:01.379Z,12.43
2018-05-17T03:51:28.869Z,12.47
2018-05-17T03:53:57.127Z,11.93
2018-05-17T03:56:25.387Z,15.47
2018-05-17T03:58:52.858Z,13.47
2018-05-17T04:01:33.897Z,13.53
2018-05-17T04:04:13.200Z,13.17
2018-05-17T04:06:40.687Z,13.97
2018-05-17T04:09:08.197Z,15.17
2018-05-17T04:11:36.441Z,15.57
2018-05-17T04:14:03.937Z,15.90
2018-05-17T04:16:31.547Z,14.50
2018-05-17T04:18:59.879Z,14.60
2018-05-17T04:21:27.395Z,15.03
2018-05-17T04:23:54.868Z,14.67
2018-05-17T04:26:23.110Z,16.57
2018-05-17T04:28:50.601Z,14.97
2018-05-17T04:31:19.472Z,16.93
2018-05-17T04:33:47.622Z,16.17
2018-05-17T04:36:15.158Z,17.20
2018-05-17T04:38:42.647Z,17.37
2018-05-17T04:41:10.140Z,18.77
2018-05-17T04:43:38.845Z,19.03
2018-05-17T04:46:06.452Z,20.17
2018-05-17T04:48:33.980Z,18.10
2018-05-17T04:51:01.460Z,18.20
2018-05-17T04:53:28.949Z,18.97
2018-05-17T04:55:57.196Z,18.40
2018-05-17T04:58:25.171Z,20.63
2018-05-17T05:00:52.655Z,17.20
2018-05-17T05:03:20.140Z,17.20
2018-05-17T05:05:47.627Z,18.90
2018-05-17T05:08:15.150Z,19.10
2018-05-17T05:10:42.623Z,20.33
2018-05-17T05:13:10.103Z,22.67
2018-05-17T05:15:38.425Z,24.20
2018-05-17T05:18:05.830Z,26.20
2018-05-17T05:20:33.343Z,26.93
2018-05-17T05:23:00.934Z,28.67
2018-05-17T05:25:28.411Z,32.40
2018-05-17T05:27:56.166Z,35.63
2018-05-17T05:30:25.145Z,35.70
2018-05-17T05:32:52.814Z,41.90
2018-05-17T05:35:20.289Z,35.27
2018-05-17T05:37:47.799Z,35.53
2018-05-17T05:40:15.300Z,36.00
2018-05-17T05:42:42.867Z,39.90
2018-05-17T05:45:11.123Z,34.73
2018-05-17T05:47:38.596Z,40.77
2018-05-17T05:50:06.858Z,39.47
2018-05-17T05:52:34.483Z,36.00
2018-05-17T05:55:03.063Z,37.50
2018-05-17T05:57:30.546Z,38.70
2018-05-17T05:59:58.012Z,42.80
2018-05-17T06:02:25.569Z,43.27
2018-05-17T06:04:53.120Z,45.93
2018-05-17T06:07:20.601Z,38.07
2018-05-17T06:09:48.850Z,43.13
2018-05-17T06:12:16.336Z,45.93
2018-05-17T06:14:44.575Z,40.13
2018-05-17T06:17:12.071Z,43.70
2018-05-17T06:19:39.570Z,46.67
2018-05-17T06:22:07.076Z,46.17
2018-05-17T06:24:35.340Z,44.70
2018-05-17T06:27:03.599Z,45.10
2018-05-17T06:29:32.750Z,45.33
2018-05-17T06:32:00.242Z,39.30
2018-05-17T06:34:27.718Z,35.23
2018-05-17T06:36:56.569Z,30.30
2018-05-17T06:39:24.056Z,32.27
2018-05-17T06:41:51.535Z,26.23
2018-05-17T06:44:19.021Z,27.43
2018-05-17T06:46:46.486Z,27.03
2018-05-17T06:49:14.009Z,27.13
2018-05-17T06:51:42.243Z,20.17
2018-05-17T06:54:09.778Z,16.00
2018-05-17T06:56:37.251Z,17.23
2018-05-17T06:59:05.520Z,14.73
2018-05-17T07:01:33.015Z,14.60
2018-05-17T07:04:01.303Z,10.63
2018-05-17T07:06:28.786Z,11.87
2018-05-17T07:08:56.272Z,9.37
2018-05-17T07:11:23.759Z,8.87
2018-05-17T07:13:51.994Z,9.47
2018-05-17T07:16:19.504Z,7.53
2018-05-17T07:18:47.355Z,7.47
2018-05-17T07:21:14.441Z,8.37
2018-05-17T07:23:42.526Z,7.93
2018-05-17T07:26:10.020Z,7.47
2018-05-17T07:28:38.248Z,7.13
2018-05-17T07:31:05.730Z,6.83
2018-05-17T07:33:33.300Z,6.17
2018-05-17T07:36:00.806Z,5.37
2018-05-17T07:38:28.319Z,4.30
2018-05-17T07:40:56.568Z,3.60
2018-05-17T07:43:24.056Z,3.53
2018-05-17T07:45:52.955Z,3.90
2018-05-17T07:48:21.207Z,3.63
2018-05-17T07:50:49.438Z,3.10
2018-05-17T07:53:16.977Z,3.10
2018-05-17T07:55:44.462Z,3.53
2018-05-17T07:58:11.943Z,3.47
2018-05-17T08:00:39.423Z,4.13
2018-05-17T08:03:07.650Z,5.00
2018-05-17T08:05:35.148Z,4.90
2018-05-17T08:08:03.397Z,5.33
2018-05-17T08:10:31.359Z,6.00
2018-05-17T08:13:00.517Z,7.37
2018-05-17T08:15:27.994Z,7.30
2018-05-17T08:17:55.580Z,7.30
2018-05-17T08:20:22.944Z,6.17
2018-05-17T08:22:51.207Z,6.07
2018-05-17T08:25:18.670Z,6.13
2018-05-17T08:27:46.170Z,6.23
2018-05-17T08:30:13.649Z,7.23
2018-05-17T08:32:41.117Z,7.70
2018-05-17T08:35:08.638Z,10.03
2018-05-17T08:37:36.095Z,7.67
2018-05-17T08:40:03.583Z,9.67
2018-05-17T08:42:31.089Z,10.67
2018-05-17T08:44:58.584Z,10.03
2018-05-17T08:47:26.051Z,12.27
2018-05-17T08:49:53.555Z,12.87
2018-05-17T08:52:21.057Z,14.60
2018-05-17T08:54:48.526Z,17.67
2018-05-17T08:57:16.027Z,19.23
2018-05-17T08:59:44.340Z,20.00
2018-05-17T09:02:12.540Z,18.27
2018-05-17T09:04:40.025Z,20.17
2018-05-17T09:07:08.259Z,19.33
2018-05-17T09:09:35.734Z,19.37
2018-05-17T09:12:03.236Z,17.93
2018-05-17T09:14:30.703Z,17.73
2018-05-17T09:16:58.188Z,18.73
2018-05-17T09:19:25.711Z,19.43
2018-05-17T09:21:53.331Z,19.93
2018-05-17T09:24:21.571Z,20.90
2018-05-17T09:26:49.063Z,19.93
2018-05-17T09:29:17.377Z,18.67
2018-05-17T09:31:44.797Z,23.23
2018-05-17T09:34:13.043Z,24.40
2018-05-17T09:36:41.924Z,18.47
2018-05-17T09:39:09.392Z,18.33
2018-05-17T09:41:36.927Z,27.43
2018-05-17T09:44:04.407Z,25.27
2018-05-17T09:46:31.878Z,24.57
2018-05-17T09:49:00.131Z,19.27
2018-05-17T09:51:27.613Z,22.60
2018-05-17T09:53:55.865Z,25.00
2018-05-17T09:56:23.345Z,22.03
2018-05-17T09:58:51.603Z,21.13
2018-05-17T10:01:19.103Z,25.27
2018-05-17T10:03:46.597Z,27.63
2018-05-17T10:06:14.072Z,26.03
2018-05-17T10:08:41.553Z,22.23
2018-05-17T10:11:09.076Z,23.90
2018-05-17T10:13:36.548Z,26.87
2018-05-17T10:16:04.803Z,25.50
2018-05-17T10:18:32.292Z,27.13
2018-05-17T10:21:00.554Z,30.03
2018-05-17T10:23:28.813Z,29.40
2018-05-17T10:25:56.288Z,29.27
2018-05-17T10:28:24.548Z,27.10
2018-05-17T10:30:52.031Z,28.53
2018-05-17T10:33:19.527Z,26.27
2018-05-17T10:35:47.045Z,28.80
2018-05-17T10:38:15.291Z,24.80
2018-05-17T10:40:42.848Z,33.70
2018-05-17T10:43:10.353Z,30.87
2018-05-17T10:45:37.818Z,28.07
2018-05-17T10:48:05.317Z,27.50
2018-05-17T10:50:32.785Z,26.03
2018-05-17T10:53:01.049Z,28.17
2018-05-17T10:55:28.729Z,29.93
2018-05-17T10:57:56.979Z,24.30
2018-05-17T11:00:24.469Z,28.33
2018-05-17T11:02:51.959Z,25.40
2018-05-17T11:05:19.463Z,28.27
2018-05-17T11:07:47.724Z,29.30
2018-05-17T11:10:15.208Z,29.03
2018-05-17T11:12:42.703Z,29.60
2018-05-17T11:15:10.196Z,27.63
2018-05-17T11:17:37.696Z,25.67
2018-05-17T11:20:05.177Z,26.10
2018-05-17T11:22:32.647Z,27.90
2018-05-17T11:25:00.167Z,28.27
2018-05-17T11:27:27.665Z,27.73
2018-05-17T11:29:55.148Z,23.77
2018-05-17T11:32:23.392Z,32.73
2018-05-17T11:34:51.015Z,23.10
2018-05-17T11:37:18.498Z,27.40
2018-05-17T11:39:45.992Z,24.17
2018-05-17T11:42:14.265Z,27.07
2018-05-17T11:44:42.522Z,27.50
2018-05-17T11:47:11.994Z,29.17
2018-05-17T11:49:39.472Z,25.50
2018-05-17T11:52:06.959Z,24.33
2018-05-17T11:54:35.188Z,27.80
2018-05-17T11:57:02.697Z,24.83
2018-05-17T11:59:30.941Z,24.47
2018-05-17T12:01:58.419Z,29.87
2018-05-17T12:04:26.692Z,24.17
2018-05-17T12:06:54.927Z,23.23
2018-05-17T12:09:22.423Z,28.87
2018-05-17T12:11:50.685Z,24.83
2018-05-17T12:14:18.143Z,25.50
2018-05-17T12:16:45.644Z,28.10
2018-05-17T12:19:13.160Z,29.57
2018-05-17T12:21:40.718Z,33.10
2018-05-17T12:24:08.965Z,27.57
2018-05-17T12:26:38.321Z,29.53
2018-05-17T12:29:05.792Z,29.60
2018-05-17T12:31:33.272Z,27.20
2018-05-17T12:34:00.746Z,28.83
2018-05-17T12:36:28.249Z,29.60
2018-05-17T12:38:55.724Z,29.50
2018-05-17T12:41:24.875Z,27.50
2018-05-17T12:43:53.126Z,27.43
2018-05-17T12:46:20.593Z,24.20
2018-05-17T12:48:48.855Z,25.20
2018-05-17T12:51:16.341Z,24.93
2018-05-17T12:53:44.695Z,31.83
2018-05-17T12:56:12.205Z,27.13
2018-05-17T12:58:39.782Z,27.10
2018-05-17T13:01:07.211Z,29.33
2018-05-17T13:03:34.723Z,26.50
2018-05-17T13:06:02.286Z,23.60
2018-05-17T13:08:29.789Z,28.77
2018-05-17T13:10:57.264Z,31.70
2018-05-17T13:13:24.759Z,29.17
2018-05-17T13:15:53.034Z,29.87
2018-05-17T13:18:21.284Z,29.00
2018-05-17T13:20:48.780Z,31.27
2018-05-17T13:23:16.284Z,23.23
2018-05-17T13:25:43.789Z,24.77
2018-05-17T13:28:12.032Z,26.00
2018-05-17T13:30:39.527Z,25.87
2018-05-17T13:33:07.004Z,34.00
2018-05-17T13:35:34.519Z,26.40
2018-05-17T13:38:02.749Z,23.27
2018-05-17T13:40:30.248Z,27.03
2018-05-17T13:42:57.726Z,26.97
2018-05-17T13:45:25.226Z,24.70
2018-05-17T13:47:52.812Z,25.73
2018-05-17T13:50:20.957Z,26.23
2018-05-17T13:52:48.463Z,29.27
2018-05-17T13:55:16.731Z,25.83
2018-05-17T13:57:44.997Z,27.83
2018-05-17T14:00:13.225Z,24.70
2018-05-17T14:02:40.805Z,24.40
2018-05-17T14:05:08.193Z,32.73
2018-05-17T14:07:36.467Z,23.73
2018-05-17T14:10:05.219Z,23.43
2018-05-17T14:12:32.717Z,29.67
2018-05-17T14:15:00.968Z,33.47
2018-05-17T14:17:28.445Z,26.57
2018-05-17T14:19:56.708Z,24.67
2018-05-17T14:22:24.199Z,25.23
2018-05-17T14:24:51.704Z,25.27
2018-05-17T14:27:19.184Z,24.00
2018-05-17T14:29:47.427Z,26.03
2018-05-17T14:32:16.034Z,30.73
2018-05-17T14:34:44.304Z,24.87
2018-05-17T14:37:12.545Z,24.70
2018-05-17T14:39:40.040Z,27.70
2018-05-17T14:42:08.299Z,27.17
2018-05-17T14:44:35.798Z,28.37
2018-05-17T14:47:03.393Z,27.47
2018-05-17T14:49:30.909Z,27.10
2018-05-17T14:51:58.418Z,25.63
2018-05-17T14:54:25.897Z,23.13
2018-05-17T14:56:54.139Z,24.67
2018-05-17T14:59:21.635Z,23.47
2018-05-17T15:01:49.868Z,26.57
2018-05-17T15:04:17.364Z,27.67
2018-05-17T15:06:45.606Z,24.83
2018-05-17T15:09:13.141Z,25.87
2018-05-17T15:11:40.652Z,28.43
2018-05-17T15:14:08.962Z,22.60
2018-05-17T15:16:36.457Z,26.03
2018-05-17T15:19:03.978Z,25.03
2018-05-17T15:21:31.528Z,28.43
2018-05-17T15:23:59.034Z,28.83
2018-05-17T15:26:26.567Z,23.10
2018-05-17T15:28:54.055Z,23.50
2018-05-17T15:31:21.544Z,25.87
2018-05-17T15:33:49.212Z,23.47
2018-05-17T15:36:16.787Z,22.77
2018-05-17T15:38:44.171Z,24.70
2018-05-17T15:41:11.677Z,21.07
2018-05-17T15:43:39.142Z,17.47
2018-05-17T15:46:06.646Z,22.13
2018-05-17T15:48:34.124Z,18.20
2018-05-17T15:51:02.367Z,20.27
2018-05-17T15:53:31.497Z,19.13
2018-05-17T15:55:58.918Z,22.70
2018-05-17T15:58:26.442Z,17.10
2018-05-17T16:00:53.956Z,16.93
2018-05-17T16:03:21.457Z,15.60
2018-05-17T16:05:48.925Z,18.20
2018-05-17T16:08:16.563Z,16.60
2018-05-17T16:10:44.093Z,21.90
2018-05-17T16:13:12.370Z,18.63
2018-05-17T16:15:40.652Z,31.03
2018-05-17T16:18:08.101Z,19.67
2018-05-17T16:20:36.383Z,18.90
2018-05-17T16:23:04.642Z,16.87
2018-05-17T16:25:32.942Z,17.23
2018-05-17T16:28:00.437Z,15.93
2018-05-17T16:30:27.940Z,20.63
2018-05-17T16:32:56.231Z,16.70
2018-05-17T16:35:23.715Z,16.17
2018-05-17T16:37:51.225Z,14.70
2018-05-17T16:40:19.457Z,15.73
2018-05-17T16:42:47.012Z,14.80
2018-05-17T16:45:14.445Z,13.30
2018-05-17T16:47:41.953Z,12.73
2018-05-17T16:50:09.436Z,17.80
2018-05-17T16:52:37.034Z,18.27
2018-05-17T16:55:04.433Z,13.37
2018-05-17T16:57:32.681Z,16.73
2018-05-17T17:00:00.203Z,12.70
2018-05-17T17:02:28.721Z,16.67
2018-05-17T17:04:56.217Z,16.70
2018-05-17T17:07:23.688Z,17.50
2018-05-17T17:09:51.163Z,16.70
2018-05-17T17:12:18.675Z,19.57
2018-05-17T17:14:46.198Z,17.20
2018-05-17T17:17:13.737Z,18.57
2018-05-17T17:19:41.257Z,15.30
2018-05-17T17:22:08.762Z,18.37
2018-05-17T17:24:36.242Z,17.23
2018-05-17T17:27:03.742Z,19.40
2018-05-17T17:29:31.211Z,15.60
2018-05-17T17:31:58.687Z,15.63
2018-05-17T17:34:26.188Z,15.07
2018-05-17T17:36:54.439Z,20.30
2018-05-17T17:39:21.940Z,16.77
2018-05-17T17:41:49.442Z,15.77
2018-05-17T17:44:16.933Z,19.03
2018-05-17T17:46:45.201Z,20.57
2018-05-17T17:49:13.458Z,17.87
2018-05-17T17:51:40.945Z,21.00
2018-05-17T17:54:08.441Z,16.27
2018-05-17T17:56:35.961Z,18.50
2018-05-17T17:59:03.441Z,22.77
2018-05-17T18:01:30.950Z,18.17
2018-05-17T18:03:59.212Z,21.27
2018-05-17T18:06:26.725Z,18.97
2018-05-17T18:08:54.234Z,23.43
2018-05-17T18:11:22.527Z,22.87
2018-05-17T18:13:50.794Z,19.43
2018-05-17T18:16:19.028Z,23.80
2018-05-17T18:18:46.527Z,20.27
2018-05-17T18:21:14.829Z,18.37
2018-05-17T18:23:42.302Z,21.30
2018-05-17T18:26:09.811Z,22.03
2018-05-17T18:28:38.079Z,21.97
2018-05-17T18:31:06.343Z,17.13
2018-05-17T18:33:34.644Z,20.37
2018-05-17T18:36:02.908Z,21.30
2018-05-17T18:38:31.218Z,18.53
2018-05-17T18:40:58.684Z,19.27
2018-05-17T18:43:26.161Z,18.37
2018-05-17T18:45:53.670Z,18.17
2018-05-17T18:48:21.167Z,16.67
2018-05-17T18:50:48.668Z,19.57
2018-05-17T18:53:16.967Z,21.43
2018-05-17T18:55:44.560Z,15.57
2018-05-17T18:58:12.091Z,20.67
2018-05-17T19:00:39.600Z,16.57
2018-05-17T19:03:07.112Z,16.13
2018-05-17T19:05:34.649Z,18.23
2018-05-17T19:08:02.251Z,14.47
2018-05-17T19:10:29.745Z,18.67
2018-05-17T19:12:58.003Z,17.27
2018-05-17T19:15:25.528Z,17.57
2018-05-17T19:17:53.005Z,17.73
2018-05-17T19:20:20.561Z,16.47
2018-05-17T19:22:48.019Z,19.47
2018-05-17T19:25:15.517Z,17.87
2018-05-17T19:27:43.801Z,18.87
2018-05-17T19:30:11.295Z,17.90
2018-05-17T19:32:38.789Z,15.67
2018-05-17T19:35:07.068Z,21.13
2018-05-17T19:37:35.333Z,20.00
2018-05-17T19:40:03.618Z,20.33
2018-05-17T19:42:31.906Z,19.37
2018-05-17T19:45:00.269Z,18.33
2018-05-17T19:47:28.523Z,17.43
2018-05-17T19:49:56.035Z,19.37
2018-05-17T19:52:23.562Z,18.30
2018-05-17T19:54:51.867Z,17.97
2018-05-17T19:57:19.373Z,20.57
2018-05-17T19:59:47.676Z,20.73
2018-05-17T20:02:15.916Z,20.60
2018-05-17T20:04:43.524Z,16.47
2018-05-17T20:07:11.013Z,26.70
2018-05-17T20:09:38.495Z,27.00
2018-05-17T20:12:05.993Z,17.93
2018-05-17T20:14:33.539Z,16.20
2018-05-17T20:17:01.042Z,19.53
2018-05-17T20:19:28.548Z,22.00
2018-05-17T20:21:56.789Z,18.50
2018-05-17T20:24:24.289Z,22.03
2018-05-17T20:26:51.784Z,16.10
2018-05-17T20:29:19.370Z,20.37
2018-05-17T20:31:47.559Z,19.93
2018-05-17T20:34:15.837Z,18.73
2018-05-17T20:36:44.152Z,23.13
2018-05-17T20:39:12.370Z,16.93
2018-05-17T20:41:40.659Z,19.23
2018-05-17T20:44:09.012Z,19.77
2018-05-17T20:46:36.520Z,18.13
2018-05-17T20:49:04.025Z,18.47
2018-05-17T20:51:31.555Z,17.13
2018-05-17T20:53:59.043Z,24.07
2018-05-17T20:56:26.527Z,19.43
2018-05-17T20:58:54.021Z,15.30
2018-05-17T21:01:21.514Z,16.07
2018-05-17T21:03:48.992Z,17.43
2018-05-17T21:06:17.276Z,20.47
2018-05-17T21:08:44.765Z,14.67
2018-05-17T21:11:12.261Z,17.40
2018-05-17T21:13:39.772Z,17.57
2018-05-17T21:16:07.235Z,13.70
2018-05-17T21:18:34.743Z,20.53
2018-05-17T21:21:03.026Z,22.37
2018-05-17T21:23:30.573Z,18.67
2018-05-17T21:25:58.832Z,20.80
2018-05-17T21:28:26.343Z,17.33
2018-05-17T21:30:53.845Z,17.30
2018-05-17T21:33:21.446Z,15.90
2018-05-17T21:35:48.911Z,17.43
2018-05-17T21:38:16.432Z,17.50
2018-05-17T21:40:44.688Z,21.63
2018-05-17T21:43:12.171Z,18.83
2018-05-17T21:45:39.660Z,21.97
2018-05-17T21:48:07.161Z,22.13
2018-05-17T21:50:34.721Z,15.50
2018-05-17T21:53:03.003Z,18.67
2018-05-17T21:55:30.613Z,19.13
2018-05-17T21:57:58.023Z,21.30
2018-05-17T22:00:26.286Z,18.90
2018-05-17T22:02:53.760Z,17.13
2018-05-17T22:05:21.255Z,22.33
2018-05-17T22:07:48.754Z,18.23
2018-05-17T22:10:17.009Z,16.63
2018-05-17T22:12:44.517Z,21.17
2018-05-17T22:15:11.991Z,18.67
2018-05-17T22:17:39.476Z,19.10
2018-05-17T22:20:06.967Z,20.23
2018-05-17T22:22:35.244Z,16.57
2018-05-17T22:25:02.711Z,21.87
2018-05-17T22:27:30.208Z,18.13
2018-05-17T22:29:57.705Z,17.53
2018-05-17T22:32:25.942Z,24.67
2018-05-17T22:34:53.455Z,21.60
2018-05-17T22:37:20.919Z,22.30
2018-05-17T22:39:48.412Z,17.40
2018-05-17T22:42:15.980Z,16.97
2018-05-17T22:44:44.686Z,20.07
2018-05-17T22:47:12.907Z,16.93
2018-05-17T22:49:40.399Z,18.87
2018-05-17T22:52:07.891Z,17.33
2018-05-17T22:54:35.359Z,19.07
2018-05-17T22:57:11.707Z,18.43
2018-05-17T22:59:39.235Z,17.83
2018-05-17T23:02:06.720Z,18.60
2018-05-17T23:04:34.191Z,25.97
2018-05-17T23:07:01.676Z,21.97
2018-05-17T23:09:29.157Z,19.53
2018-05-17T23:11:56.640Z,19.30
2018-05-17T23:14:24.883Z,16.47
2018-05-17T23:16:52.364Z,20.43
2018-05-17T23:19:20.608Z,20.00
2018-05-17T23:21:48.082Z,19.13
2018-05-17T23:24:16.330Z,18.00
2018-05-17T23:26:43.807Z,21.23
2018-05-17T23:29:11.277Z,19.07
2018-05-17T23:31:39.543Z,20.43
2018-05-17T23:34:07.789Z,16.67
2018-05-17T23:36:35.285Z,18.07
2018-05-17T23:39:03.532Z,23.83
2018-05-17T23:41:35.716Z,21.47
2018-05-17T23:44:03.224Z,23.80
2018-05-17T23:46:30.712Z,22.43
2018-05-17T23:48:58.196Z,21.33
2018-05-17T23:51:26.436Z,24.67
2018-05-17T23:53:53.926Z,21.00
2018-05-17T23:56:22.188Z,27.07
2018-05-17T23:58:50.436Z,23.17
